Time;durP1;ratioP1;P1;durP2;ratioP2;P2;SDS_P1;SDS_P2;PMS_P1;PMS_P2;Temp;Humidity;BMP_temperature;BMP_pressure;BME280_temperature;BME280_humidity;BME280_pressure;Samples;Min_cycle;Max_cycle;Signal;HPM_P1;HPM_P2
2022/05/23 00:01:03;;;;;;;31.40;21.65;;;;;;;8.01;76.43;100466.95;1749698;80;20922;-68
2022/05/23 00:03:31;;;;;;;39.63;23.18;;;;;;;7.92;76.46;100463.02;1747599;80;20891;-68
2022/05/23 00:05:58;;;;;;;59.05;32.60;;;;;;;7.88;76.29;100461.69;1736843;82;21154;-68
2022/05/23 00:08:25;;;;;;;61.28;32.65;;;;;;;7.86;76.59;100460.98;1737424;82;21306;-68
2022/05/23 00:10:51;;;;;;;49.60;28.27;;;;;;;7.79;76.62;100457.27;1738337;80;21017;-68
2022/05/23 00:13:17;;;;;;;37.75;23.87;;;;;;;7.77;76.69;100457.91;1754801;80;20978;-68
2022/05/23 00:15:43;;;;;;;48.35;25.80;;;;;;;7.77;76.72;100463.22;1757438;80;20895;-68
2022/05/23 00:18:09;;;;;;;49.50;28.02;;;;;;;7.75;76.74;100462.03;1757913;80;20894;-68
2022/05/23 00:20:35;;;;;;;42.25;24.67;;;;;;;7.71;76.79;100455.84;1757350;81;21345;-68
2022/05/23 00:23:01;;;;;;;45.50;23.75;;;;;;;7.69;76.84;100455.17;1757392;80;21005;-68
2022/05/23 00:25:27;;;;;;;45.58;27.02;;;;;;;7.66;76.88;100456.80;1757392;81;20982;-68
2022/05/23 00:27:53;;;;;;;42.15;25.52;;;;;;;7.62;76.94;100447.46;1757831;80;20946;-68
2022/05/23 00:30:24;;;;;;;44.20;25.43;;;;;;;7.61;76.99;100449.77;1757517;81;21452;-68
2022/05/23 00:35:35;;;;;;;37.23;23.18;;;;;;;7.54;77.10;100443.73;1757454;81;21030;-68
2022/05/23 00:38:01;;;;;;;40.80;23.27;;;;;;;7.53;77.14;100436.75;1757532;81;20998;-68
2022/05/23 00:40:45;;;;;;;39.92;23.18;;;;;;;7.49;77.20;100445.98;1757571;81;20942;-68
2022/05/23 00:43:21;;;;;;;38.42;22.73;;;;;;;7.47;77.26;100441.34;1758317;80;21014;-68
2022/05/23 00:45:57;;;;;;;32.50;20.60;;;;;;;7.45;77.29;100448.62;1757434;81;21150;-68
2022/05/23 00:48:25;;;;;;;33.42;21.00;;;;;;;7.44;77.31;100447.44;1756778;80;21061;-67
2022/05/23 00:51:01;;;;;;;31.33;19.25;;;;;;;7.43;77.37;100446.59;1757482;81;21061;-68
2022/05/23 00:53:41;;;;;;;28.62;18.98;;;;;;;7.42;77.42;100442.26;1758277;80;21435;-68
2022/05/23 00:56:09;;;;;;;29.87;19.00;;;;;;;7.43;77.44;100449.25;1757212;81;21069;-68
2022/05/23 00:58:45;;;;;;;31.82;20.60;;;;;;;7.40;77.50;100448.70;1757481;81;22108;-68
2022/05/23 01:01:14;;;;;;;29.30;18.98;;;;;;;7.34;77.54;100446.17;1757856;80;20995;-68
2022/05/23 01:03:40;;;;;;;25.75;16.37;;;;;;;7.34;77.58;100441.34;1757476;81;20986;-68
2022/05/23 01:06:07;;;;;;;30.02;19.57;;;;;;;7.32;77.60;100441.48;1757836;80;20950;-68
2022/05/23 01:08:36;;;;;;;30.88;18.67;;;;;;;7.33;77.63;100448.47;1757904;80;21494;-67
2022/05/23 01:11:03;;;;;;;29.52;18.65;;;;;;;7.31;77.67;100446.47;1757298;81;21459;-67
2022/05/23 01:13:29;;;;;;;28.92;18.55;;;;;;;7.27;77.71;100449.07;1753006;80;20999;-68
2022/05/23 01:15:55;;;;;;;30.30;19.20;;;;;;;7.25;77.76;100445.71;1749119;82;20891;-67
2022/05/23 01:18:21;;;;;;;27.65;20.30;;;;;;;7.23;77.78;100443.70;1749595;82;20943;-67
2022/05/23 01:20:52;;;;;;;31.90;19.85;;;;;;;7.23;77.80;100442.38;1749859;80;20963;-67
2022/05/23 01:23:47;;;;;;;32.33;19.23;;;;;;;7.23;77.84;100441.55;1729225;81;22031;-67
2022/05/23 01:26:13;;;;;;;37.13;21.65;;;;;;;7.19;77.85;100443.66;1749604;82;21046;-68
2022/05/23 01:28:40;;;;;;;34.10;21.17;;;;;;;7.12;77.92;100430.64;1755212;80;20899;-68
2022/05/23 01:31:07;;;;;;;35.05;19.40;;;;;;;7.08;77.96;100431.06;1718553;82;21042;-67
2022/05/23 01:33:32;;;;;;;39.83;21.25;;;;;;;7.04;78.01;100426.55;1749019;82;20998;-68
2022/05/23 01:35:59;;;;;;;45.55;23.35;;;;;;;6.99;77.98;100420.87;1749467;81;21340;-67
2022/05/23 01:38:26;;;;;;;43.05;19.55;;;;;;;6.93;78.05;100413.52;1752976;80;21023;-67
2022/05/23 01:40:53;;;;;;;35.75;18.55;;;;;;;6.93;78.12;100410.86;1749804;80;20974;-68
2022/05/23 01:43:19;;;;;;;28.00;16.35;;;;;;;6.93;78.17;100405.55;1718664;82;20955;-68
2022/05/23 01:45:45;;;;;;;25.35;14.93;;;;;;;6.93;78.21;100412.19;1749238;82;20982;-68
2022/05/23 01:48:11;;;;;;;28.30;15.98;;;;;;;6.93;78.26;100411.67;1750078;80;21784;-68
2022/05/23 01:50:37;;;;;;;29.72;15.65;;;;;;;6.94;78.29;100410.70;1749284;82;20891;-68
2022/05/23 01:53:03;;;;;;;24.20;14.25;;;;;;;6.89;78.30;100412.12;1749524;82;20982;-68
2022/05/23 01:55:29;;;;;;;25.80;14.40;;;;;;;6.85;78.36;100408.94;1750054;80;20986;-68
2022/05/23 01:57:55;;;;;;;21.17;12.33;;;;;;;6.84;78.40;100405.09;1754372;80;21005;-67
2022/05/23 02:03:06;;;;;;;24.87;15.03;;;;;;;6.80;78.49;100398.41;1753905;80;20979;-67
2022/05/23 02:05:33;;;;;;;22.73;13.60;;;;;;;6.80;78.51;100393.10;1753321;80;21663;-68
2022/05/23 02:08:00;;;;;;;21.97;12.63;;;;;;;6.78;78.54;100380.50;1750484;80;20967;-68
2022/05/23 02:10:26;;;;;;;29.98;15.43;;;;;;;6.77;78.59;100377.50;1748974;81;21061;-68
2022/05/23 02:12:53;;;;;;;30.92;14.20;;;;;;;6.76;78.61;100375.82;1751066;81;21245;-68
2022/05/23 02:15:19;;;;;;;31.68;15.72;;;;;;;6.77;78.67;100381.48;1757457;81;20967;-67
2022/05/23 02:17:45;;;;;;;28.50;14.87;;;;;;;6.77;78.71;100376.17;1758155;80;21148;-67
2022/05/23 02:20:12;;;;;;;29.80;15.60;;;;;;;6.76;78.73;100373.17;1757498;81;20859;-68
2022/05/23 02:22:38;;;;;;;22.93;13.05;;;;;;;6.73;78.74;100375.63;1757615;81;20991;-68
2022/05/23 02:25:05;;;;;;;34.58;15.25;;;;;;;6.72;78.79;100375.80;1757354;81;21213;-67
2022/05/23 02:27:31;;;;;;;26.50;14.25;;;;;;;6.70;78.84;100367.14;1758502;80;21041;-68
2022/05/23 02:29:58;;;;;;;24.60;13.15;;;;;;;6.69;78.85;100366.78;1757365;81;21724;-67
2022/05/23 02:32:24;;;;;;;19.12;11.20;;;;;;;6.68;78.91;100372.60;1757329;80;21049;-67
2022/05/23 02:34:50;;;;;;;18.42;10.30;;;;;;;6.70;78.94;100372.44;1757436;81;20902;-67
2022/05/23 02:37:16;;;;;;;14.28;8.08;;;;;;;6.71;78.98;100374.95;1758121;80;22080;-68
2022/05/23 02:39:42;;;;;;;17.37;9.78;;;;;;;6.72;79.01;100375.80;1757686;81;20887;-68
2022/05/23 02:42:08;;;;;;;17.77;9.78;;;;;;;6.73;79.05;100374.80;1782095;80;20883;-68
2022/05/23 02:44:35;;;;;;;15.72;9.28;;;;;;;6.76;79.11;100374.49;1788602;80;21002;-67
2022/05/23 02:47:01;;;;;;;18.82;10.53;;;;;;;6.76;79.14;100374.49;1775494;80;20986;-68
2022/05/23 02:49:27;;;;;;;14.95;9.48;;;;;;;6.77;79.16;100376.17;1757303;81;21236;-67
2022/05/23 02:51:53;;;;;;;19.90;9.80;;;;;;;6.79;79.18;100371.58;1757442;81;20974;-68
2022/05/23 02:54:20;;;;;;;19.52;10.23;;;;;;;6.77;79.18;100363.77;1757069;81;21022;-68
2022/05/23 02:56:46;;;;;;;18.00;10.50;;;;;;;6.77;79.23;100365.57;1771925;80;21038;-68
2022/05/23 02:59:12;;;;;;;18.02;9.73;;;;;;;6.78;79.27;100362.79;1757398;81;20970;-67
2022/05/23 03:03:01;;;;;;;21.57;9.73;;;;;;;6.83;79.33;100363.66;1757505;81;21210;-68
2022/05/23 03:04:05;;;;;;;14.40;7.90;;;;;;;6.87;79.38;100363.71;1752595;81;21030;-67
2022/05/23 03:06:31;;;;;;;11.63;7.60;;;;;;;6.89;79.38;100365.74;1757927;80;20922;-68
2022/05/23 03:08:57;;;;;;;12.95;7.70;;;;;;;6.95;79.41;100363.81;1757938;80;20875;-67
2022/05/23 03:11:23;;;;;;;10.88;7.22;;;;;;;7.02;79.44;100366.22;1757073;81;21660;-67
2022/05/23 03:13:49;;;;;;;13.88;7.95;;;;;;;7.10;79.44;100358.86;1757556;80;21261;-68
2022/05/23 03:16:15;;;;;;;13.62;7.80;;;;;;;7.22;79.50;100365.12;1758481;80;21506;-68
2022/05/23 03:18:41;;;;;;;13.68;7.97;;;;;;;7.31;79.52;100362.08;1758188;80;21451;-68
2022/05/23 03:21:09;;;;;;;14.13;8.38;;;;;;;7.42;79.54;100362.67;1757748;80;20938;-68
2022/05/23 03:29:08;;;;;;;12.78;7.72;;;;;;;7.75;79.61;100370.94;1757519;81;21514;-68
2022/05/23 03:31:34;;;;;;;14.87;8.20;;;;;;;7.88;79.65;100368.76;1757989;81;21064;-68
2022/05/23 03:34:00;;;;;;;17.45;8.80;;;;;;;8.03;79.69;100372.52;1757888;81;20994;-68
2022/05/23 03:36:26;;;;;;;15.03;9.48;;;;;;;8.30;79.84;100375.05;1763229;80;20999;-68
2022/05/23 03:38:52;;;;;;;11.75;8.40;;;;;;;8.76;80.06;100381.81;1757800;81;21882;-68
2022/05/23 03:41:18;;;;;;;15.18;8.33;;;;;;;9.43;80.31;100384.05;1757629;81;20979;-68
2022/05/23 03:43:44;;;;;;;14.68;7.53;;;;;;;10.36;80.42;100386.30;1757925;81;21033;-68
2022/05/23 03:46:12;;;;;;;12.07;6.62;;;;;;;11.42;80.29;100391.61;1757838;81;20950;-68
2022/05/23 03:48:38;;;;;;;16.75;7.85;;;;;;;12.47;79.92;100401.52;1759216;80;20983;-68
2022/05/23 03:51:05;;;;;;;11.75;6.55;;;;;;;13.13;79.31;100402.48;1758450;80;21050;-69
2022/05/23 03:53:31;;;;;;;12.58;5.60;;;;;;;14.01;79.13;100399.56;1757791;81;21058;-68
2022/05/23 03:55:57;;;;;;;7.85;6.00;;;;;;;14.95;78.72;100401.75;1757773;81;21014;-69
2022/05/23 03:58:26;;;;;;;8.30;5.58;;;;;;;15.76;78.01;100402.72;1758693;80;21474;-69
2022/05/23 04:00:52;;;;;;;10.00;5.90;;;;;;;16.33;77.25;100402.17;1758472;80;21030;-69
2022/05/23 04:03:19;;;;;;;6.80;4.95;;;;;;;16.63;76.66;100400.44;1757574;81;22165;-69
2022/05/23 04:05:45;;;;;;;10.30;5.78;;;;;;;17.34;75.97;100402.13;1757940;81;21030;-69
2022/05/23 04:08:12;;;;;;;6.10;5.35;;;;;;;17.42;75.01;100400.52;1772180;80;20963;-69
2022/05/23 04:10:40;;;;;;;6.15;5.17;;;;;;;17.54;74.37;100406.59;1782976;80;21007;-69
2022/05/23 04:13:07;;;;;;;9.57;5.80;;;;;;;17.44;73.44;100411.10;1757950;81;21074;-70
2022/05/23 04:15:33;;;;;;;7.37;5.00;;;;;;;17.54;72.73;100408.77;1757621;81;21094;-69
2022/05/23 04:17:59;;;;;;;6.80;4.97;;;;;;;17.72;71.62;100402.69;1758458;80;21033;-69
2022/05/23 04:20:26;;;;;;;6.20;4.97;;;;;;;17.96;70.97;100402.75;1757999;81;20899;-70
2022/05/23 04:22:53;;;;;;;7.72;4.87;;;;;;;18.64;69.96;100396.63;1757871;80;21411;-70
2022/05/23 04:25:19;;;;;;;8.70;5.50;;;;;;;19.27;68.96;100398.55;1757776;81;20990;-70
2022/05/23 04:27:45;;;;;;;6.12;5.00;;;;;;;19.41;68.08;100404.13;1760485;80;21195;-70
2022/05/23 04:30:11;;;;;;;6.67;5.25;;;;;;;19.00;67.11;100411.52;1758445;80;20962;-69
2022/05/23 04:35:22;;;;;;;8.03;5.62;;;;;;;18.71;64.78;100408.20;1855075;77;22644;-69
2022/05/23 04:37:50;;;;;;;7.65;5.60;;;;;;;18.35;64.49;100413.78;1759002;81;20876;-69
2022/05/23 04:40:23;;;;;;;6.20;5.60;;;;;;;17.75;64.34;100423.84;1782525;78;21845;-69
2022/05/23 04:42:49;;;;;;;8.80;6.37;;;;;;;16.77;64.70;100423.11;1699355;83;20930;-69
2022/05/23 04:45:15;;;;;;;8.70;6.35;;;;;;;16.30;64.92;100428.16;1759531;81;21452;-69
2022/05/23 04:50:26;;;;;;;7.15;5.25;;;;;;;15.94;65.11;100434.41;1761176;78;20984;-69
2022/05/23 04:52:53;;;;;;;8.73;5.55;;;;;;;15.74;65.05;100430.86;1759642;81;22053;-70
2022/05/23 04:55:19;;;;;;;6.55;5.30;;;;;;;15.94;65.03;100435.77;1759883;81;20864;-70
2022/05/23 04:57:46;;;;;;;7.78;5.28;;;;;;;15.66;64.77;100427.83;1759993;78;21042;-69
2022/05/23 05:00:14;;;;;;;7.22;5.42;;;;;;;15.62;64.80;100437.32;1761376;78;21648;-69
2022/05/23 05:02:40;;;;;;;8.53;5.17;;;;;;;15.80;64.75;100427.34;1763506;80;21554;-70
2022/05/23 05:05:07;;;;;;;9.63;5.42;;;;;;;15.93;64.57;100430.09;1773495;80;21116;-69
2022/05/23 05:07:33;;;;;;;9.13;5.10;;;;;;;16.22;64.51;100425.66;1814779;78;20969;-70
2022/05/23 05:09:59;;;;;;;5.80;4.72;;;;;;;16.56;64.39;100431.41;1793454;80;20954;-70
2022/05/23 05:12:25;;;;;;;7.15;6.03;;;;;;;16.31;64.09;100425.79;1793949;80;20995;-70
2022/05/23 05:14:51;;;;;;;7.28;5.25;;;;;;;16.04;63.88;100426.81;1826265;78;21454;-70
2022/05/23 05:17:17;;;;;;;10.13;5.50;;;;;;;15.82;63.89;100426.64;1794002;80;21171;-70
2022/05/23 05:19:43;;;;;;;12.30;5.05;;;;;;;15.99;63.95;100428.75;1792714;78;20965;-70
2022/05/23 05:22:09;;;;;;;6.72;5.15;;;;;;;16.26;63.80;100428.26;1819821;78;20989;-70
2022/05/23 05:24:35;;;;;;;7.47;5.40;;;;;;;16.10;63.43;100424.63;1762549;81;20926;-69
2022/05/23 05:27:01;;;;;;;5.55;4.53;;;;;;;16.09;63.39;100417.59;1793845;80;20942;-70
2022/05/23 05:29:28;;;;;;;6.15;5.42;;;;;;;16.05;63.28;100411.47;1792930;78;20982;-70
2022/05/23 05:32:20;;;;;;;8.78;5.05;;;;;;;16.29;63.29;100409.00;1791498;80;20974;-70
2022/05/23 05:34:54;;;;;;;5.83;5.20;;;;;;;16.32;63.02;100407.27;1781710;79;20977;-70
2022/05/23 05:37:25;;;;;;;7.08;4.95;;;;;;;16.47;62.88;100416.45;1775965;79;21027;-70
2022/05/23 05:39:51;;;;;;;8.05;5.25;;;;;;;16.39;62.75;100416.17;1775765;79;20987;-70
2022/05/23 05:42:27;;;;;;;7.12;5.37;;;;;;;16.35;62.54;100402.81;1765025;80;21835;-70
2022/05/23 05:44:58;;;;;;;6.08;5.47;;;;;;;16.49;62.46;100401.77;1791464;79;21005;-70
2022/05/23 05:47:24;;;;;;;7.90;5.25;;;;;;;16.58;62.21;100390.80;1772352;80;21054;-70
2022/05/23 05:49:56;;;;;;;7.08;5.40;;;;;;;16.68;62.17;100396.58;1767548;79;21018;-70
2022/05/23 05:52:24;;;;;;;8.30;5.75;;;;;;;16.70;61.94;100406.13;1791462;78;20974;-70
2022/05/23 05:54:50;;;;;;;7.40;5.15;;;;;;;16.88;61.84;100414.91;1760398;80;22097;-70
2022/05/23 05:57:16;;;;;;;5.97;5.03;;;;;;;17.10;61.63;100414.14;1791379;80;21045;-70
2022/05/23 05:59:42;;;;;;;11.30;5.60;;;;;;;17.33;61.57;100415.80;1738271;81;20894;-70
2022/05/23 06:02:09;;;;;;;7.10;4.78;;;;;;;17.47;61.43;100414.71;1791445;80;20993;-70
2022/05/23 06:04:36;;;;;;;5.58;4.50;;;;;;;17.51;61.26;100415.11;1771184;79;21617;-70
2022/05/23 06:12:31;;;;;;;5.80;4.62;;;;;;;16.85;60.76;100416.68;1790883;80;21085;-70
2022/05/23 06:14:58;;;;;;;5.97;4.22;;;;;;;16.73;60.50;100411.61;1791392;79;20949;-70
2022/05/23 06:17:24;;;;;;;6.15;4.60;;;;;;;16.71;60.54;100403.73;1760254;81;20990;-70
2022/05/23 06:19:50;;;;;;;6.50;4.40;;;;;;;16.62;60.30;100408.20;1766368;80;21217;-69
2022/05/23 06:22:16;;;;;;;7.83;4.97;;;;;;;16.49;60.23;100404.47;1823578;78;20957;-70
2022/05/23 06:24:44;;;;;;;6.67;4.85;;;;;;;16.58;60.25;100401.57;1823556;78;21223;-70
2022/05/23 06:27:10;;;;;;;5.45;4.62;;;;;;;16.69;60.20;100398.25;1789529;80;21412;-70
2022/05/23 06:29:36;;;;;;;7.20;4.58;;;;;;;16.55;60.01;100399.27;1793680;78;20962;-70
2022/05/23 06:32:03;;;;;;;7.70;4.55;;;;;;;16.64;60.14;100398.06;1760021;81;21141;-70
2022/05/23 06:34:29;;;;;;;5.95;4.37;;;;;;;16.63;59.95;100389.67;1756118;79;21416;-70
2022/05/23 06:36:56;;;;;;;6.30;4.58;;;;;;;16.52;59.80;100397.00;1742587;81;21070;-70
2022/05/23 06:39:22;;;;;;;5.25;4.22;;;;;;;16.58;59.78;100400.23;1763906;81;21042;-70
2022/05/23 06:41:48;;;;;;;6.83;4.70;;;;;;;16.52;59.63;100400.52;1741056;82;21495;-70
2022/05/23 06:44:14;;;;;;;6.37;4.40;;;;;;;16.71;59.65;100397.54;1760023;81;20975;-70
2022/05/23 06:46:40;;;;;;;7.87;3.87;;;;;;;16.79;59.51;100398.64;1759894;81;20891;-70
2022/05/23 06:49:06;;;;;;;5.65;4.72;;;;;;;16.80;59.46;100390.88;1761847;80;20914;-69
2022/05/23 06:51:34;;;;;;;5.33;4.10;;;;;;;17.17;59.43;100390.14;1765090;80;21578;-70
2022/05/23 06:54:00;;;;;;;6.37;4.25;;;;;;;17.54;59.37;100389.05;1770917;80;21003;-70
2022/05/23 06:56:28;;;;;;;10.35;4.03;;;;;;;17.67;59.10;100386.31;1793083;80;22110;-69
2022/05/23 06:58:55;;;;;;;3.77;3.25;;;;;;;17.47;58.79;100381.84;1771487;80;20987;-70
2022/05/23 07:01:21;;;;;;;5.53;4.03;;;;;;;17.29;58.58;100368.23;1763174;80;21034;-70
2022/05/23 07:03:47;;;;;;;6.15;4.20;;;;;;;17.16;58.31;100370.98;1772764;80;20987;-70
2022/05/23 07:14:26;;;;;;;8.43;4.60;;;;;;;18.50;57.89;100349.16;1777747;80;21054;-70
2022/05/23 07:16:54;;;;;;;6.42;3.90;;;;;;;18.75;57.83;100352.67;1770542;80;21878;-69
2022/05/23 07:19:20;;;;;;;5.55;3.92;;;;;;;18.55;57.37;100349.32;1790616;80;21042;-70
2022/05/23 07:21:46;;;;;;;6.08;3.72;;;;;;;18.29;57.10;100347.16;1793123;80;21770;-70
2022/05/23 07:24:12;;;;;;;6.10;4.33;;;;;;;18.37;57.11;100332.01;1793191;79;21006;-70
2022/05/23 07:26:38;;;;;;;5.97;4.35;;;;;;;18.36;56.68;100335.78;1772059;80;20895;-70
2022/05/23 07:29:04;;;;;;;6.33;4.75;;;;;;;18.29;56.51;100337.72;1762927;80;20900;-70
2022/05/23 07:31:30;;;;;;;7.08;4.47;;;;;;;18.34;56.42;100339.21;1791970;80;21034;-70
2022/05/23 07:33:56;;;;;;;7.30;4.25;;;;;;;18.33;56.17;100329.45;1792612;79;21125;-70
2022/05/23 07:36:22;;;;;;;5.60;3.87;;;;;;;18.36;56.07;100333.08;1819511;78;21037;-70
2022/05/23 07:38:48;;;;;;;6.53;4.20;;;;;;;18.33;55.69;100332.70;1764761;81;20855;-70
2022/05/23 07:41:15;;;;;;;4.83;3.25;;;;;;;18.10;55.36;100326.55;1799567;78;21678;-69
2022/05/23 07:43:42;;;;;;;3.62;3.27;;;;;;;18.44;55.54;100335.47;1763716;79;20914;-69
2022/05/23 07:46:16;;;;;;;5.25;3.83;;;;;;;18.73;55.13;100332.62;1794877;79;21026;-69
2022/05/23 07:48:45;;;;;;;4.92;3.33;;;;;;;18.56;54.79;100333.42;1807408;78;20978;-70
2022/05/23 07:51:12;;;;;;;6.08;3.02;;;;;;;18.66;54.77;100326.98;1768598;79;21010;-69
2022/05/23 08:01:50;;;;;;;4.95;3.27;;;;;;;19.09;54.26;100318.79;1796172;79;21454;-70
2022/05/23 08:04:16;;;;;;;4.92;2.72;;;;;;;19.35;53.96;100324.67;1795469;79;20887;-70
2022/05/23 08:06:43;;;;;;;5.35;2.65;;;;;;;19.40;53.81;100323.47;1795864;79;20966;-70
2022/05/23 08:09:09;;;;;;;8.03;3.27;;;;;;;19.27;53.50;100325.01;1739042;81;21474;-70
2022/05/23 08:11:38;;;;;;;5.42;2.98;;;;;;;19.23;53.30;100319.75;1797963;78;21243;-69
2022/05/23 08:14:04;;;;;;;3.20;2.40;;;;;;;19.31;53.08;100322.15;1798234;78;21080;-69
2022/05/23 08:16:30;;;;;;;3.90;2.15;;;;;;;19.20;52.66;100318.86;1783986;78;21003;-70
2022/05/23 08:18:58;;;;;;;3.95;2.60;;;;;;;19.08;52.30;100312.55;1819478;78;20969;-70
2022/05/23 08:21:25;;;;;;;2.85;2.10;;;;;;;19.25;52.22;100316.28;1796087;79;20979;-70
2022/05/23 08:23:51;;;;;;;3.10;2.27;;;;;;;19.55;51.91;100310.09;1796057;79;21292;-70
2022/05/23 08:26:17;;;;;;;5.75;2.60;;;;;;;19.51;51.71;100312.42;1828803;78;21655;-70
2022/05/23 08:28:43;;;;;;;4.12;2.67;;;;;;;19.93;51.64;100305.11;1794299;79;20966;-70
2022/05/23 08:31:09;;;;;;;4.95;2.60;;;;;;;20.00;51.16;100311.25;1788048;80;20934;-70
2022/05/23 08:33:35;;;;;;;4.00;2.35;;;;;;;19.98;50.90;100313.38;1818915;78;20942;-70
2022/05/23 08:36:02;;;;;;;5.53;2.58;;;;;;;19.95;50.66;100308.40;1793645;80;21115;-70
2022/05/23 08:38:28;;;;;;;4.25;2.75;;;;;;;19.57;50.00;100300.67;1792932;80;21009;-70
2022/05/23 08:41:19;;;;;;;3.62;2.52;;;;;;;19.50;50.20;100291.83;1804127;78;21778;-70
2022/05/23 08:44:29;;;;;;;5.05;2.58;;;;;;;19.74;50.22;100296.77;1761613;81;21574;-70
2022/05/23 08:47:03;;;;;;;7.25;2.60;;;;;;;19.53;49.98;100295.98;1726255;82;21102;-70
2022/05/23 08:49:41;;;;;;;2.27;2.08;;;;;;;19.42;49.97;100294.88;1749310;80;21139;-70
2022/05/23 08:52:24;;;;;;;3.15;2.05;;;;;;;19.42;49.91;100294.88;1758163;80;21014;-70
2022/05/23 08:55:01;;;;;;;3.27;2.25;;;;;;;19.47;50.06;100291.47;1794181;78;21037;-70
2022/05/23 08:57:43;;;;;;;3.35;2.35;;;;;;;19.24;49.82;100287.61;1809711;78;21413;-70
2022/05/23 09:00:14;;;;;;;3.65;2.08;;;;;;;19.73;49.91;100289.20;1825444;78;20963;-70
2022/05/23 09:02:56;;;;;;;4.85;2.50;;;;;;;20.06;49.62;100298.64;1805860;78;21764;-70
2022/05/23 09:05:29;;;;;;;4.03;2.02;;;;;;;19.92;49.04;100293.98;1820199;78;21002;-70
2022/05/23 09:07:56;;;;;;;3.05;2.10;;;;;;;19.53;48.64;100291.92;1792670;80;21045;-70
2022/05/23 09:10:59;;;;;;;4.08;2.55;;;;;;;19.43;48.46;100281.11;1773206;78;21019;-70
2022/05/23 09:13:27;;;;;;;3.10;2.27;;;;;;;19.62;48.41;100286.46;1764048;80;21456;-70
2022/05/23 09:16:03;;;;;;;3.27;2.45;;;;;;;19.79;48.17;100280.67;1787114;78;21319;-70
2022/05/23 09:18:28;;;;;;;3.00;1.87;;;;;;;19.82;48.06;100270.20;1804742;78;21014;-70
2022/05/23 09:20:58;;;;;;;3.00;1.90;;;;;;;19.88;47.92;100262.49;1761654;81;21463;-70
2022/05/23 09:23:37;;;;;;;2.70;1.77;;;;;;;19.85;47.65;100260.27;1824744;78;21034;-70
2022/05/23 09:26:04;;;;;;;4.53;1.55;;;;;;;19.92;47.58;100257.44;1811226;77;20963;-70
2022/05/23 09:28:36;;;;;;;2.60;1.90;;;;;;;19.60;47.18;100250.71;1822959;78;21222;-70
2022/05/23 09:31:19;;;;;;;3.12;1.80;;;;;;;19.52;46.99;100246.45;1794652;78;21029;-69
2022/05/23 09:33:49;;;;;;;4.90;2.30;;;;;;;19.40;46.70;100244.20;1803909;78;21463;-70
2022/05/23 09:36:22;;;;;;;2.47;2.00;;;;;;;19.38;46.62;100243.09;1796368;78;21431;-70
2022/05/23 09:38:59;;;;;;;2.60;2.02;;;;;;;19.32;46.56;100237.23;1796833;79;21305;-70
2022/05/23 09:49:52;;;;;;;3.55;2.37;;;;;;;19.87;46.51;100224.85;1829059;78;21030;-70
2022/05/23 09:52:35;;;;;;;5.87;2.02;;;;;;;19.86;46.23;100226.73;1828630;78;21431;-69
2022/05/23 09:55:06;;;;;;;1.95;1.70;;;;;;;19.59;46.04;100232.81;1827342;78;21075;-69
2022/05/23 09:57:53;;;;;;;3.77;2.20;;;;;;;19.17;45.79;100224.69;1839509;77;21508;-69
2022/05/23 10:00:25;;;;;;;2.25;1.50;;;;;;;18.93;45.60;100226.98;1794132;79;21605;-69
2022/05/23 10:03:01;;;;;;;2.17;1.75;;;;;;;18.89;45.52;100227.16;1785549;79;21110;-69
2022/05/23 10:05:35;;;;;;;3.85;1.40;;;;;;;18.93;45.52;100213.46;1784642;78;21472;-69
2022/05/23 10:08:05;;;;;;;3.00;1.60;;;;;;;19.04;45.39;100211.34;1809634;78;21031;-69
2022/05/23 10:10:36;;;;;;;6.85;2.37;;;;;;;19.08;45.13;100209.83;1811892;78;21075;-69
2022/05/23 10:13:34;;;;;;;4.87;2.72;;;;;;;19.22;45.11;100213.16;1787809;78;21678;-69
2022/05/23 10:16:16;;;;;;;4.47;1.70;;;;;;;19.49;45.23;100214.98;1790246;79;21030;-69
2022/05/23 10:19:03;;;;;;;3.80;2.00;;;;;;;19.31;44.85;100204.52;1807701;78;21411;-69
2022/05/23 10:21:35;;;;;;;3.17;2.10;;;;;;;19.26;44.80;100200.31;1788420;79;21485;-69
2022/05/23 10:24:19;;;;;;;5.85;1.60;;;;;;;19.48;44.79;100209.27;1785311;79;21084;-69
2022/05/23 10:26:51;;;;;;;1.90;1.52;;;;;;;19.31;44.43;100200.98;1808426;78;21548;-69
2022/05/23 10:29:54;;;;;;;1.57;1.30;;;;;;;19.18;44.28;100208.74;1789130;78;21010;-69
2022/05/23 10:32:41;;;;;;;2.17;1.60;;;;;;;19.25;44.22;100198.66;1782452;79;22208;-69
2022/05/23 10:35:29;;;;;;;2.95;1.80;;;;;;;19.17;44.03;100202.23;1804757;77;21683;-69
2022/05/23 10:42:07;;;;;;;2.10;1.65;;;;;;;19.03;43.97;100189.44;1780077;79;21799;-69
2022/05/23 10:43:20;;;;;;;2.65;1.57;;;;;;;19.38;44.15;100186.30;1780032;79;21635;-69
2022/05/23 10:45:54;;;;;;;2.50;1.60;;;;;;;19.51;44.10;100181.75;1780561;79;21096;-69
2022/05/23 10:48:44;;;;;;;2.30;1.62;;;;;;;19.61;44.15;100177.93;1806449;78;21021;-69
2022/05/23 10:51:21;;;;;;;2.70;1.32;;;;;;;19.67;44.19;100175.63;1784018;78;21073;-69
2022/05/23 10:54:18;;;;;;;3.52;1.72;;;;;;;19.77;44.03;100174.55;1784849;78;21075;-69
2022/05/23 10:57:23;;;;;;;5.20;1.98;;;;;;;19.69;43.90;100162.71;1790452;79;20974;-69
2022/05/23 11:00:03;;;;;;;4.97;1.70;;;;;;;19.79;43.83;100156.17;1826268;78;20983;-69
2022/05/23 11:02:49;;;;;;;2.55;1.40;;;;;;;19.85;43.81;100168.77;1803616;78;21984;-69
2022/05/23 11:05:23;;;;;;;3.85;1.75;;;;;;;19.84;43.55;100168.48;1802504;78;21554;-69
2022/05/23 11:08:23;;;;;;;3.58;1.47;;;;;;;19.82;43.50;100171.94;1786154;78;21042;-69
2022/05/23 11:11:28;;;;;;;4.12;1.75;;;;;;;19.71;43.21;100166.00;1807488;78;21549;-69
2022/05/23 11:14:11;;;;;;;2.10;1.70;;;;;;;19.86;43.39;100152.83;1792002;79;20986;-68
2022/05/23 11:16:52;;;;;;;5.53;1.70;;;;;;;20.15;43.30;100147.80;1786035;79;21093;-68
2022/05/23 11:19:58;;;;;;;2.35;1.42;;;;;;;20.00;42.95;100152.87;1773068;79;21054;-68
2022/05/23 11:22:32;;;;;;;3.77;1.60;;;;;;;19.95;42.94;100145.98;1817408;78;21454;-68
2022/05/23 11:25:32;;;;;;;3.47;1.47;;;;;;;20.01;42.96;100134.75;1777516;79;21003;-69
2022/05/23 11:33:47;;;;;;;1.98;1.52;;;;;;;19.94;42.41;100130.82;1767656;79;21005;-68
2022/05/23 11:36:44;;;;;;;3.42;1.50;;;;;;;19.93;42.42;100129.16;1816606;77;21037;-69
2022/05/23 11:38:54;;;;;;;8.08;1.52;;;;;;;20.09;42.48;100124.91;1822498;78;20963;-68
2022/05/23 11:41:41;;;;;;;3.83;2.00;;;;;;;20.15;42.33;100116.66;1816449;78;21492;-69
2022/05/23 11:44:50;;;;;;;3.92;1.67;;;;;;;20.04;42.28;100116.14;1818309;78;21180;-68
2022/05/23 11:47:25;;;;;;;4.42;1.50;;;;;;;20.22;42.40;100116.52;1764844;80;21220;-68
2022/05/23 11:50:06;;;;;;;1.95;1.42;;;;;;;20.29;42.30;100108.58;1808384;78;21018;-69
2022/05/23 11:52:35;;;;;;;1.92;1.27;;;;;;;20.11;42.13;100106.53;1787766;79;21072;-68
2022/05/23 11:55:02;;;;;;;2.45;1.42;;;;;;;20.13;42.13;100109.28;1803053;78;20980;-68
2022/05/23 11:57:38;;;;;;;1.80;1.27;;;;;;;20.14;41.95;100101.46;1775738;79;21121;-69
2022/05/23 12:00:10;;;;;;;3.37;1.65;;;;;;;20.15;41.92;100099.58;1776545;79;21061;-68
2022/05/23 12:02:39;;;;;;;2.87;1.82;;;;;;;20.22;41.95;100089.44;1820516;78;21562;-68
2022/05/23 12:05:12;;;;;;;2.15;1.42;;;;;;;20.10;41.72;100090.81;1792164;78;21072;-68
2022/05/23 12:07:46;;;;;;;4.92;1.50;;;;;;;19.80;41.60;100092.88;1805314;78;21061;-68
2022/05/23 12:10:28;;;;;;;5.33;1.37;;;;;;;19.71;41.64;100091.05;1779614;79;21950;-69
2022/05/23 12:13:00;;;;;;;5.12;1.60;;;;;;;19.83;41.77;100081.05;1794529;79;21460;-68
2022/05/23 12:15:46;;;;;;;4.67;1.67;;;;;;;19.96;41.75;100078.60;1792058;78;21013;-68
2022/05/23 12:18:24;;;;;;;1.87;1.05;;;;;;;20.15;41.81;100076.04;1810257;78;21452;-68
2022/05/23 12:20:56;;;;;;;2.75;1.55;;;;;;;20.33;41.85;100065.59;1810749;78;20994;-69
2022/05/23 12:23:42;;;;;;;2.27;1.45;;;;;;;20.56;41.90;100057.87;1806761;78;21297;-69
2022/05/23 12:26:20;;;;;;;3.42;1.10;;;;;;;20.62;41.91;100054.21;1748016;80;21005;-68
2022/05/23 12:28:57;;;;;;;3.15;1.60;;;;;;;20.58;41.53;100050.34;1795530;79;21009;-69
2022/05/23 12:31:33;;;;;;;2.83;1.52;;;;;;;20.19;41.00;100040.65;1827404;78;20995;-68
2022/05/23 12:34:10;;;;;;;5.60;1.50;;;;;;;20.01;40.88;100027.81;1804874;78;21463;-69
2022/05/23 12:36:50;;;;;;;2.15;1.27;;;;;;;20.06;40.80;100028.72;1779137;79;21122;-69